createdAt,value
2022-09-25T00:00:28.428Z,98829.00
2022-09-25T00:01:28.581Z,98826.00
2022-09-25T00:02:28.523Z,98828.00
2022-09-25T00:03:28.479Z,98832.00
2022-09-25T00:04:28.539Z,98829.00
2022-09-25T00:05:28.504Z,98832.00
2022-09-25T00:06:28.628Z,98833.00
2022-09-25T00:07:28.533Z,98837.00
2022-09-25T00:08:28.578Z,98829.00
2022-09-25T00:09:28.599Z,98836.00
2022-09-25T00:10:28.654Z,98834.00
2022-09-25T00:11:28.619Z,98834.00
2022-09-25T00:12:28.632Z,98833.00
2022-09-25T00:13:28.665Z,98836.00
2022-09-25T00:14:28.675Z,98833.00
2022-09-25T00:15:28.704Z,98833.00
2022-09-25T00:16:28.856Z,98840.00
2022-09-25T00:17:28.728Z,98836.00
2022-09-25T00:18:28.779Z,98836.00
2022-09-25T00:19:28.748Z,98835.00
2022-09-25T00:20:28.766Z,98833.00
2022-09-25T00:21:28.786Z,98832.00
2022-09-25T00:22:28.853Z,98832.00
2022-09-25T00:23:28.805Z,98831.00
2022-09-25T00:24:28.826Z,98830.00
2022-09-25T00:25:28.853Z,98832.00
2022-09-25T00:26:28.870Z,98831.00
2022-09-25T00:27:28.914Z,98830.00
2022-09-25T00:28:28.894Z,98831.00
2022-09-25T00:29:28.918Z,98832.00
2022-09-25T00:30:29.003Z,98827.00
2022-09-25T00:31:28.956Z,98825.00
2022-09-25T00:32:28.972Z,98820.00
2022-09-25T00:33:28.996Z,98820.00
2022-09-25T00:34:29.007Z,98820.00
2022-09-25T00:35:28.988Z,98819.00
2022-09-25T00:36:28.994Z,98819.00
2022-09-25T00:37:29.030Z,98820.00
2022-09-25T00:38:29.039Z,98820.00
2022-09-25T00:39:29.036Z,98827.00
2022-09-25T00:40:29.123Z,98824.00
2022-09-25T00:41:29.068Z,98826.00
2022-09-25T00:42:29.125Z,98822.00
2022-09-25T00:43:29.073Z,98826.00
2022-09-25T00:44:29.094Z,98822.00
2022-09-25T00:45:29.131Z,98827.00
2022-09-25T00:46:29.277Z,98826.00
2022-09-25T00:47:29.177Z,98818.00
2022-09-25T00:48:29.202Z,98820.00
2022-09-25T00:49:29.208Z,98821.00
2022-09-25T00:50:29.352Z,98820.00
2022-09-25T00:51:29.211Z,98825.00
2022-09-25T00:52:29.234Z,98822.00
2022-09-25T00:53:29.274Z,98826.00
2022-09-25T00:54:29.308Z,98820.00
2022-09-25T00:55:29.326Z,98817.00
2022-09-25T00:56:29.348Z,98823.00
2022-09-25T00:57:29.370Z,98817.00
2022-09-25T00:58:29.395Z,98815.00
2022-09-25T00:59:29.383Z,98819.00
2022-09-25T01:00:29.412Z,98819.00
2022-09-25T01:01:29.462Z,98815.00
2022-09-25T01:02:29.544Z,98813.00
2022-09-25T01:03:29.466Z,98814.00
2022-09-25T01:04:29.472Z,98811.00
2022-09-25T01:05:29.459Z,98808.00
2022-09-25T01:06:29.492Z,98812.00
2022-09-25T01:07:29.473Z,98806.00
2022-09-25T01:08:29.506Z,98808.00
2022-09-25T01:09:29.533Z,98809.00
2022-09-25T01:10:29.554Z,98814.00
2022-09-25T01:11:29.507Z,98807.00
2022-09-25T01:12:29.536Z,98807.00
2022-09-25T01:13:29.535Z,98813.00
2022-09-25T01:14:29.566Z,98807.00
2022-09-25T01:15:29.542Z,98807.00
2022-09-25T01:16:29.628Z,98807.00
2022-09-25T01:17:29.556Z,98810.00
2022-09-25T01:18:29.593Z,98806.00
2022-09-25T01:19:29.611Z,98806.00
2022-09-25T01:20:29.633Z,98806.00
2022-09-25T01:21:29.691Z,98800.00
2022-09-25T01:22:29.661Z,98805.00
2022-09-25T01:23:29.671Z,98806.00
2022-09-25T01:24:29.725Z,98806.00
2022-09-25T01:25:29.725Z,98806.00
2022-09-25T01:26:29.871Z,98804.00
2022-09-25T01:27:29.780Z,98808.00
2022-09-25T01:28:29.805Z,98806.00
2022-09-25T01:29:29.821Z,98802.00
2022-09-25T01:30:29.892Z,98807.00
2022-09-25T01:31:29.859Z,98809.00
2022-09-25T01:32:29.838Z,98806.00
2022-09-25T01:33:29.856Z,98802.00
2022-09-25T01:34:29.869Z,98803.00
2022-09-25T01:35:29.955Z,98803.00
2022-09-25T01:36:29.898Z,98805.00
2022-09-25T01:37:29.931Z,98804.00
2022-09-25T01:38:29.970Z,98800.00
2022-09-25T01:39:29.939Z,98801.00
2022-09-25T01:40:30.029Z,98800.00
2022-09-25T01:41:29.966Z,98800.00
2022-09-25T01:42:30.063Z,98803.00
2022-09-25T01:43:29.984Z,98795.00
2022-09-25T01:44:29.962Z,98803.00
2022-09-25T01:45:29.981Z,98802.00
2022-09-25T01:46:30.094Z,98803.00
2022-09-25T01:47:29.982Z,98801.00
2022-09-25T01:48:30.037Z,98802.00
2022-09-25T01:49:30.031Z,98797.00
2022-09-25T01:50:30.037Z,98799.00
2022-09-25T01:51:30.059Z,98797.00
2022-09-25T01:52:30.032Z,98797.00
2022-09-25T01:53:30.067Z,98795.00
2022-09-25T01:54:30.066Z,98794.00
2022-09-25T01:55:30.103Z,98797.00
2022-09-25T01:56:30.127Z,98796.00
2022-09-25T01:57:30.102Z,98789.00
2022-09-25T01:58:30.141Z,98797.00
2022-09-25T01:59:30.152Z,98791.00
2022-09-25T02:00:30.164Z,98791.00
2022-09-25T02:01:30.318Z,98792.00
2022-09-25T02:02:30.279Z,98793.00
2022-09-25T02:03:30.221Z,98791.00
2022-09-25T02:04:30.243Z,98791.00
2022-09-25T02:05:30.243Z,98786.00
2022-09-25T02:06:30.281Z,98785.00
2022-09-25T02:07:30.314Z,98785.00
2022-09-25T02:08:30.331Z,98784.00
2022-09-25T02:09:30.369Z,98782.00
2022-09-25T02:10:30.340Z,98781.00
2022-09-25T02:11:30.356Z,98783.00
2022-09-25T02:12:30.357Z,98782.00
2022-09-25T02:13:30.383Z,98783.00
2022-09-25T02:14:30.429Z,98783.00
2022-09-25T02:15:30.453Z,98786.00
2022-09-25T02:16:30.575Z,98785.00
2022-09-25T02:17:30.465Z,98786.00
2022-09-25T02:18:30.486Z,98785.00
2022-09-25T02:19:30.506Z,98782.00
2022-09-25T02:20:30.536Z,98781.00
2022-09-25T02:21:30.585Z,98787.00
2022-09-25T02:22:30.556Z,98782.00
2022-09-25T02:23:30.581Z,98783.00
2022-09-25T02:24:30.636Z,98786.00
2022-09-25T02:25:30.636Z,98784.00
2022-09-25T02:26:30.649Z,98784.00
2022-09-25T02:27:30.651Z,98783.00
2022-09-25T02:28:30.683Z,98779.00
2022-09-25T02:29:30.703Z,98781.00
2022-09-25T02:30:30.794Z,98777.00
2022-09-25T02:31:30.753Z,98777.00
2022-09-25T02:32:30.764Z,98776.00
2022-09-25T02:33:30.768Z,98779.00
2022-09-25T02:34:30.801Z,98780.00
2022-09-25T02:35:30.822Z,98781.00
2022-09-25T02:36:30.835Z,98781.00
2022-09-25T02:37:30.857Z,98787.00
2022-09-25T02:38:30.909Z,98789.00
2022-09-25T02:39:30.910Z,98787.00
2022-09-25T02:40:30.957Z,98785.00
2022-09-25T02:41:30.948Z,98781.00
2022-09-25T02:42:30.980Z,98784.00
2022-09-25T02:43:30.997Z,98780.00
2022-09-25T02:44:31.034Z,98780.00
2022-09-25T02:45:31.045Z,98782.00
2022-09-25T02:46:31.203Z,98777.00
2022-09-25T02:47:31.131Z,98777.00
2022-09-25T02:48:31.133Z,98783.00
2022-09-25T02:49:31.131Z,98779.00
2022-09-25T02:50:31.122Z,98777.00
2022-09-25T02:51:31.131Z,98784.00
2022-09-25T02:52:31.153Z,98781.00
2022-09-25T02:53:31.196Z,98777.00
2022-09-25T02:54:31.231Z,98777.00
2022-09-25T02:55:31.240Z,98781.00
2022-09-25T02:56:31.254Z,98776.00
2022-09-25T02:57:31.273Z,98782.00
2022-09-25T02:58:31.262Z,98777.00
2022-09-25T02:59:31.272Z,98784.00
2022-09-25T03:00:31.295Z,98787.00
2022-09-25T03:01:31.393Z,98784.00
2022-09-25T03:02:31.405Z,98786.00
2022-09-25T03:03:31.355Z,98784.00
2022-09-25T03:04:31.390Z,98779.00
2022-09-25T03:05:31.409Z,98782.00
2022-09-25T03:06:31.450Z,98782.00
2022-09-25T03:07:31.453Z,98781.00
2022-09-25T03:08:31.449Z,98777.00
2022-09-25T03:09:31.503Z,98777.00
2022-09-25T03:10:31.510Z,98780.00
2022-09-25T03:11:31.780Z,98778.00
2022-09-25T03:12:31.540Z,98777.00
2022-09-25T03:13:31.565Z,98781.00
2022-09-25T03:14:31.577Z,98779.00
2022-09-25T03:15:31.593Z,98777.00
2022-09-25T03:16:31.711Z,98777.00
2022-09-25T03:17:31.634Z,98779.00
2022-09-25T03:18:31.674Z,98780.00
2022-09-25T03:19:31.665Z,98780.00
2022-09-25T03:20:31.686Z,98780.00
2022-09-25T03:21:31.739Z,98779.00
2022-09-25T03:22:31.750Z,98780.00
2022-09-25T03:23:31.756Z,98781.00
2022-09-25T03:24:31.813Z,98785.00
2022-09-25T03:25:31.813Z,98782.00
2022-09-25T03:26:31.855Z,98781.00
2022-09-25T03:27:31.832Z,98779.00
2022-09-25T03:28:31.859Z,98780.00
2022-09-25T03:29:31.870Z,98780.00
2022-09-25T03:30:31.997Z,98778.00
2022-09-25T03:31:31.918Z,98778.00
2022-09-25T03:32:31.948Z,98776.00
2022-09-25T03:33:31.959Z,98773.00
2022-09-25T03:34:32.001Z,98773.00
2022-09-25T03:35:31.995Z,98776.00
2022-09-25T03:36:32.037Z,98772.00
2022-09-25T03:37:32.038Z,98772.00
2022-09-25T03:38:32.036Z,98771.00
2022-09-25T03:39:32.048Z,98771.00
2022-09-25T03:40:32.772Z,98770.00
2022-09-25T03:41:32.056Z,98767.00
2022-09-25T03:42:32.032Z,98765.00
2022-09-25T03:43:32.078Z,98767.00
2022-09-25T03:44:32.088Z,98770.00
2022-09-25T03:45:32.118Z,98767.00
2022-09-25T03:46:32.291Z,98770.00
2022-09-25T03:47:32.170Z,98767.00
2022-09-25T03:48:32.170Z,98768.00
2022-09-25T03:49:32.217Z,98773.00
2022-09-25T03:50:32.245Z,98773.00
2022-09-25T03:51:32.256Z,98771.00
2022-09-25T03:52:32.227Z,98769.00
2022-09-25T03:53:32.257Z,98771.00
2022-09-25T03:54:32.284Z,98768.00
2022-09-25T03:55:32.303Z,98763.00
2022-09-25T03:56:32.322Z,98772.00
2022-09-25T03:57:32.309Z,98772.00
2022-09-25T03:58:32.292Z,98772.00
2022-09-25T03:59:32.310Z,98769.00
2022-09-25T04:00:32.335Z,98769.00
2022-09-25T04:01:32.361Z,98775.00
2022-09-25T04:02:32.396Z,98776.00
2022-09-25T04:03:32.369Z,98774.00
2022-09-25T04:04:32.384Z,98774.00
2022-09-25T04:05:32.405Z,98775.00
2022-09-25T04:06:32.467Z,98775.00
2022-09-25T04:07:32.465Z,98771.00
2022-09-25T04:08:32.481Z,98772.00
2022-09-25T04:09:32.497Z,98766.00
2022-09-25T04:10:32.485Z,98764.00
2022-09-25T04:11:32.506Z,98766.00
2022-09-25T04:12:32.533Z,98765.00
2022-09-25T04:13:32.545Z,98766.00
2022-09-25T04:14:32.577Z,98764.00
2022-09-25T04:15:32.591Z,98766.00
2022-09-25T04:16:32.680Z,98762.00
2022-09-25T04:17:32.626Z,98767.00
2022-09-25T04:18:32.606Z,98758.00
2022-09-25T04:19:32.634Z,98762.00
2022-09-25T04:20:32.648Z,98763.00
2022-09-25T04:21:32.611Z,98761.00
2022-09-25T04:22:32.654Z,98759.00
2022-09-25T04:23:32.655Z,98760.00
2022-09-25T04:24:32.678Z,98761.00
2022-09-25T04:25:32.908Z,98760.00
2022-09-25T04:26:32.680Z,98760.00
2022-09-25T04:27:32.730Z,98757.00
2022-09-25T04:28:32.705Z,98757.00
2022-09-25T04:29:32.685Z,98758.00
2022-09-25T04:30:32.718Z,98758.00
2022-09-25T04:31:32.745Z,98757.00
2022-09-25T04:32:32.705Z,98757.00
2022-09-25T04:33:32.735Z,98761.00
2022-09-25T04:34:32.785Z,98762.00
2022-09-25T04:35:32.754Z,98755.00
2022-09-25T04:36:32.728Z,98758.00
2022-09-25T04:37:32.728Z,98762.00
2022-09-25T04:38:32.776Z,98758.00
2022-09-25T04:39:32.784Z,98762.00
2022-09-25T04:40:32.875Z,98762.00
2022-09-25T04:41:32.773Z,98762.00
2022-09-25T04:42:32.816Z,98764.00
2022-09-25T04:43:32.837Z,98762.00
2022-09-25T04:44:32.853Z,98764.00
2022-09-25T04:45:32.879Z,98767.00
2022-09-25T04:46:32.973Z,98766.00
2022-09-25T04:47:32.905Z,98764.00
2022-09-25T04:48:32.896Z,98762.00
2022-09-25T04:49:32.915Z,98766.00
2022-09-25T04:50:32.957Z,98769.00
2022-09-25T04:51:32.955Z,98767.00
2022-09-25T04:52:32.985Z,98772.00
2022-09-25T04:53:33.035Z,98768.00
2022-09-25T04:54:33.043Z,98769.00
2022-09-25T04:55:33.046Z,98770.00
2022-09-25T04:56:33.069Z,98770.00
2022-09-25T04:57:57.102Z,98766.00
2022-09-25T04:58:33.117Z,98767.00
2022-09-25T04:59:33.158Z,98769.00
2022-09-25T05:00:33.167Z,98767.00
2022-09-25T05:01:33.452Z,98771.00
2022-09-25T05:02:33.353Z,98772.00
2022-09-25T05:03:33.488Z,98767.00
2022-09-25T05:04:33.215Z,98765.00
2022-09-25T05:05:33.245Z,98768.00
2022-09-25T05:06:33.265Z,98769.00
2022-09-25T05:07:33.299Z,98769.00
2022-09-25T05:08:33.331Z,98768.00
2022-09-25T05:09:33.299Z,98771.00
2022-09-25T05:10:33.417Z,98768.00
2022-09-25T05:11:33.338Z,98771.00
2022-09-25T05:12:33.349Z,98771.00
2022-09-25T05:13:33.364Z,98764.00
2022-09-25T05:14:33.349Z,98764.00
2022-09-25T05:15:33.365Z,98766.00
2022-09-25T05:16:33.479Z,98765.00
2022-09-25T05:17:33.381Z,98771.00
2022-09-25T05:18:33.417Z,98768.00
2022-09-25T05:19:33.422Z,98767.00
2022-09-25T05:20:33.442Z,98772.00
2022-09-25T05:21:33.495Z,98769.00
2022-09-25T05:22:33.474Z,98765.00
2022-09-25T05:23:33.491Z,98767.00
2022-09-25T05:24:33.514Z,98764.00
2022-09-25T05:25:33.546Z,98764.00
2022-09-25T05:26:33.552Z,98764.00
2022-09-25T05:27:33.506Z,98765.00
2022-09-25T05:28:33.527Z,98765.00
2022-09-25T05:29:33.550Z,98761.00
2022-09-25T05:30:33.558Z,98760.00
2022-09-25T05:31:33.678Z,98764.00
2022-09-25T05:32:33.558Z,98761.00
2022-09-25T05:33:33.582Z,98760.00
2022-09-25T05:34:33.598Z,98763.00
2022-09-25T05:35:33.629Z,98763.00
2022-09-25T05:36:33.651Z,98761.00
2022-09-25T05:37:33.652Z,98765.00
2022-09-25T05:38:33.692Z,98762.00
2022-09-25T05:39:33.727Z,98757.00
2022-09-25T05:40:33.831Z,98767.00
2022-09-25T05:41:33.757Z,98767.00
2022-09-25T05:42:33.824Z,98766.00
2022-09-25T05:43:33.794Z,98762.00
2022-09-25T05:44:33.788Z,98765.00
2022-09-25T05:45:33.809Z,98765.00
2022-09-25T05:46:33.925Z,98766.00
2022-09-25T05:47:33.848Z,98763.00
2022-09-25T05:48:33.847Z,98767.00
2022-09-25T05:49:33.849Z,98771.00
2022-09-25T05:50:33.865Z,98775.00
2022-09-25T05:51:33.888Z,98770.00
2022-09-25T05:52:33.905Z,98772.00
2022-09-25T05:53:33.890Z,98770.00
2022-09-25T05:54:33.913Z,98773.00
2022-09-25T05:55:33.946Z,98772.00
2022-09-25T05:56:33.968Z,98775.00
2022-09-25T05:57:34.022Z,98774.00
2022-09-25T05:58:34.006Z,98779.00
2022-09-25T05:59:33.996Z,98778.00
2022-09-25T06:00:34.028Z,98782.00
2022-09-25T06:01:34.061Z,98783.00
2022-09-25T06:02:34.193Z,98778.00
2022-09-25T06:03:34.069Z,98779.00
2022-09-25T06:04:34.073Z,98782.00
2022-09-25T06:05:34.092Z,98780.00
2022-09-25T06:06:34.120Z,98782.00
2022-09-25T06:07:34.138Z,98782.00
2022-09-25T06:08:34.172Z,98781.00
2022-09-25T06:09:34.155Z,98781.00
2022-09-25T06:10:34.185Z,98775.00
2022-09-25T06:11:34.217Z,98779.00
2022-09-25T06:12:34.234Z,98775.00
2022-09-25T06:13:34.242Z,98778.00
2022-09-25T06:14:34.310Z,98772.00
2022-09-25T06:15:34.294Z,98774.00
2022-09-25T06:16:34.324Z,98772.00
2022-09-25T06:17:34.256Z,98773.00
2022-09-25T06:18:34.299Z,98774.00
2022-09-25T06:19:34.317Z,98773.00
2022-09-25T06:20:34.347Z,98773.00
2022-09-25T06:21:34.333Z,98773.00
2022-09-25T06:22:34.359Z,98775.00
2022-09-25T06:23:34.380Z,98777.00
2022-09-25T06:24:34.426Z,98776.00
2022-09-25T06:25:34.409Z,98776.00
2022-09-25T06:26:34.421Z,98782.00
2022-09-25T06:27:34.451Z,98780.00
2022-09-25T06:28:34.520Z,98782.00
2022-09-25T06:29:34.462Z,98784.00
2022-09-25T06:30:34.680Z,98782.00
2022-09-25T06:31:34.651Z,98780.00
2022-09-25T06:32:34.467Z,98781.00
2022-09-25T06:33:34.474Z,98780.00
2022-09-25T06:34:34.516Z,98780.00
2022-09-25T06:35:34.496Z,98779.00
2022-09-25T06:36:34.535Z,98786.00
2022-09-25T06:37:34.519Z,98783.00
2022-09-25T06:38:34.586Z,98779.00
2022-09-25T06:39:34.553Z,98778.00
2022-09-25T06:40:34.680Z,98773.00
2022-09-25T06:41:34.579Z,98775.00
2022-09-25T06:42:34.604Z,98775.00
2022-09-25T06:43:35.716Z,98774.00
2022-09-25T06:44:34.606Z,98776.00
2022-09-25T06:45:34.635Z,98780.00
2022-09-25T06:46:34.795Z,98781.00
2022-09-25T06:47:34.712Z,98789.00
2022-09-25T06:48:34.710Z,98795.00
2022-09-25T06:49:34.742Z,98803.00
2022-09-25T06:50:34.796Z,98795.00
2022-09-25T06:51:34.779Z,98796.00
2022-09-25T06:52:34.767Z,98795.00
2022-09-25T06:53:34.752Z,98795.00
2022-09-25T06:54:34.767Z,98791.00
2022-09-25T06:55:34.800Z,98792.00
2022-09-25T06:56:34.811Z,98782.00
2022-09-25T06:57:34.836Z,98778.00
2022-09-25T06:58:34.857Z,98772.00
2022-09-25T06:59:34.891Z,98775.00
2022-09-25T07:00:34.917Z,98777.00
2022-09-25T07:01:35.002Z,98781.00
2022-09-25T07:02:35.026Z,98787.00
2022-09-25T07:03:35.206Z,98789.00
2022-09-25T07:04:35.028Z,98791.00
2022-09-25T07:05:35.047Z,98793.00
2022-09-25T07:06:35.069Z,98790.00
2022-09-25T07:07:35.097Z,98795.00
2022-09-25T07:08:35.114Z,98788.00
2022-09-25T07:09:35.109Z,98794.00
2022-09-25T07:10:35.136Z,98791.00
2022-09-25T07:11:35.307Z,98790.00
2022-09-25T07:12:35.160Z,98798.00
2022-09-25T07:13:35.177Z,98801.00
2022-09-25T07:14:35.148Z,98803.00
2022-09-25T07:15:35.299Z,98803.00
2022-09-25T07:16:35.208Z,98804.00
2022-09-25T07:17:35.199Z,98809.00
2022-09-25T07:18:35.248Z,98809.00
2022-09-25T07:19:35.226Z,98812.00
2022-09-25T07:20:35.239Z,98812.00
2022-09-25T07:21:35.265Z,98814.00
2022-09-25T07:22:35.300Z,98814.00
2022-09-25T07:23:35.320Z,98814.00
2022-09-25T07:24:35.331Z,98816.00
2022-09-25T07:25:35.354Z,98820.00
2022-09-25T07:26:37.834Z,98819.00
2022-09-25T07:27:35.389Z,98815.00
2022-09-25T07:28:35.440Z,98816.00
2022-09-25T07:29:35.414Z,98814.00
2022-09-25T07:30:35.442Z,98812.00
2022-09-25T07:31:35.531Z,98813.00
2022-09-25T07:32:35.483Z,98810.00
2022-09-25T07:33:35.505Z,98809.00
2022-09-25T07:34:35.560Z,98811.00
2022-09-25T07:35:35.552Z,98810.00
2022-09-25T07:36:35.592Z,98807.00
2022-09-25T07:37:35.619Z,98807.00
2022-09-25T07:38:35.643Z,98805.00
2022-09-25T07:39:35.688Z,98805.00
2022-09-25T07:40:35.830Z,98809.00
2022-09-25T07:41:35.682Z,98810.00
2022-09-25T07:42:35.690Z,98811.00
2022-09-25T07:43:35.713Z,98810.00
2022-09-25T07:44:38.441Z,98804.00
2022-09-25T07:45:35.723Z,98812.00
2022-09-25T07:46:35.875Z,98812.00
2022-09-25T07:47:35.746Z,98810.00
2022-09-25T07:48:35.751Z,98810.00
2022-09-25T07:49:35.770Z,98811.00
2022-09-25T07:50:35.784Z,98804.00
2022-09-25T07:51:35.782Z,98803.00
2022-09-25T07:52:35.804Z,98800.00
2022-09-25T07:53:35.848Z,98800.00
2022-09-25T07:54:35.853Z,98801.00
2022-09-25T07:55:35.872Z,98798.00
2022-09-25T07:56:35.903Z,98802.00
2022-09-25T07:57:35.913Z,98795.00
2022-09-25T07:58:35.943Z,98804.00
2022-09-25T07:59:35.946Z,98802.00
2022-09-25T08:00:35.971Z,98802.00
2022-09-25T08:01:40.969Z,98801.00
2022-09-25T08:02:36.058Z,98800.00
2022-09-25T08:03:36.035Z,98801.00
2022-09-25T08:04:36.031Z,98797.00
2022-09-25T08:05:36.041Z,98795.00
2022-09-25T08:06:36.090Z,98801.00
2022-09-25T08:07:36.087Z,98792.00
2022-09-25T08:08:36.112Z,98804.00
2022-09-25T08:09:36.094Z,98805.00
2022-09-25T08:10:36.149Z,98801.00
2022-09-25T08:11:36.156Z,98804.00
2022-09-25T08:12:36.179Z,98804.00
2022-09-25T08:13:36.193Z,98801.00
2022-09-25T08:14:36.172Z,98801.00
2022-09-25T08:15:36.237Z,98799.00
2022-09-25T08:16:36.240Z,98796.00
2022-09-25T08:17:36.257Z,98799.00
2022-09-25T08:18:36.288Z,98797.00
2022-09-25T08:19:36.286Z,98800.00
2022-09-25T08:20:36.314Z,98801.00
2022-09-25T08:21:36.363Z,98798.00
2022-09-25T08:22:36.405Z,98800.00
2022-09-25T08:23:36.407Z,98800.00
2022-09-25T08:24:36.388Z,98795.00
2022-09-25T08:25:36.398Z,98800.00
2022-09-25T08:26:36.423Z,98802.00
2022-09-25T08:27:36.449Z,98802.00
2022-09-25T08:28:36.474Z,98797.00
2022-09-25T08:29:36.526Z,98801.00
2022-09-25T08:30:36.593Z,98798.00
2022-09-25T08:31:36.650Z,98796.00
2022-09-25T08:32:36.525Z,98799.00
2022-09-25T08:33:36.557Z,98793.00
2022-09-25T08:34:41.035Z,98799.00
2022-09-25T08:35:36.609Z,98802.00
2022-09-25T08:36:36.634Z,98803.00
2022-09-25T08:37:36.648Z,98803.00
2022-09-25T08:38:36.694Z,98801.00
2022-09-25T08:39:36.651Z,98805.00
2022-09-25T08:40:36.721Z,98806.00
2022-09-25T08:41:36.674Z,98805.00
2022-09-25T08:42:36.715Z,98804.00
2022-09-25T08:43:36.724Z,98809.00
2022-09-25T08:44:36.739Z,98809.00
2022-09-25T08:45:36.724Z,98811.00
2022-09-25T08:46:36.808Z,98807.00
2022-09-25T08:47:36.752Z,98809.00
2022-09-25T08:48:36.775Z,98807.00
2022-09-25T08:49:36.742Z,98806.00
2022-09-25T08:50:36.767Z,98804.00
2022-09-25T08:51:36.751Z,98808.00
2022-09-25T08:52:36.749Z,98810.00
2022-09-25T08:53:36.767Z,98808.00
2022-09-25T08:54:36.975Z,98807.00
2022-09-25T08:55:36.807Z,98807.00
2022-09-25T08:56:36.823Z,98806.00
2022-09-25T08:57:36.867Z,98811.00
2022-09-25T08:58:36.877Z,98810.00
2022-09-25T08:59:36.911Z,98812.00
2022-09-25T09:00:36.940Z,98809.00
2022-09-25T09:01:37.023Z,98810.00
2022-09-25T09:02:36.936Z,98813.00
2022-09-25T09:03:36.905Z,98813.00
2022-09-25T09:04:36.928Z,98814.00
2022-09-25T09:05:36.955Z,98812.00
2022-09-25T09:06:36.978Z,98810.00
2022-09-25T09:07:37.029Z,98814.00
2022-09-25T09:08:36.998Z,98813.00
2022-09-25T09:09:37.002Z,98809.00
2022-09-25T09:10:37.036Z,98810.00
2022-09-25T09:11:37.058Z,98812.00
2022-09-25T09:12:37.039Z,98807.00
2022-09-25T09:13:37.054Z,98810.00
2022-09-25T09:14:37.084Z,98812.00
2022-09-25T09:15:37.147Z,98810.00
2022-09-25T09:16:37.105Z,98809.00
2022-09-25T09:17:37.195Z,98808.00
2022-09-25T09:18:37.144Z,98811.00
2022-09-25T09:19:37.177Z,98811.00
2022-09-25T09:20:37.193Z,98811.00
2022-09-25T09:21:37.207Z,98811.00
2022-09-25T09:22:37.244Z,98810.00
2022-09-25T09:23:37.218Z,98809.00
2022-09-25T09:24:37.226Z,98805.00
2022-09-25T09:25:37.235Z,98807.00
2022-09-25T09:26:37.292Z,98800.00
2022-09-25T09:27:37.295Z,98799.00
2022-09-25T09:28:37.313Z,98803.00
2022-09-25T09:29:37.352Z,98798.00
2022-09-25T09:30:37.429Z,98798.00
2022-09-25T09:31:37.353Z,98797.00
2022-09-25T09:32:37.388Z,98792.00
2022-09-25T09:33:37.398Z,98793.00
2022-09-25T09:35:01.038Z,98799.00
2022-09-25T09:35:37.453Z,98796.00
2022-09-25T09:36:37.493Z,98796.00
2022-09-25T09:37:37.460Z,98794.00
2022-09-25T09:38:37.477Z,98794.00
2022-09-25T09:39:37.499Z,98790.00
2022-09-25T09:40:37.638Z,98792.00
2022-09-25T09:41:37.538Z,98798.00
2022-09-25T09:42:37.545Z,98795.00
2022-09-25T09:43:37.560Z,98796.00
2022-09-25T09:44:37.579Z,98793.00
2022-09-25T09:45:37.592Z,98791.00
2022-09-25T09:46:37.705Z,98792.00
2022-09-25T09:47:37.636Z,98793.00
2022-09-25T09:48:37.667Z,98796.00
2022-09-25T09:49:37.690Z,98795.00
2022-09-25T09:50:42.432Z,98796.00
2022-09-25T09:51:37.687Z,98799.00
2022-09-25T09:52:37.714Z,98797.00
2022-09-25T09:53:37.733Z,98801.00
2022-09-25T09:54:37.746Z,98801.00
2022-09-25T09:55:37.771Z,98798.00
2022-09-25T09:56:37.757Z,98798.00
2022-09-25T09:57:37.754Z,98800.00
2022-09-25T09:58:37.793Z,98801.00
2022-09-25T09:59:37.766Z,98799.00
2022-09-25T10:00:37.740Z,98798.00
2022-09-25T10:01:42.402Z,98797.00
2022-09-25T10:02:37.988Z,98797.00
2022-09-25T10:03:37.831Z,98799.00
2022-09-25T10:04:37.852Z,98798.00
2022-09-25T10:05:37.834Z,98798.00
2022-09-25T10:06:37.859Z,98800.00
2022-09-25T10:07:37.877Z,98801.00
2022-09-25T10:08:37.890Z,98798.00
2022-09-25T10:09:37.902Z,98799.00
2022-09-25T10:10:37.888Z,98800.00
2022-09-25T10:11:37.886Z,98804.00
2022-09-25T10:12:37.901Z,98802.00
2022-09-25T10:13:37.928Z,98800.00
2022-09-25T10:14:37.972Z,98804.00
2022-09-25T10:15:38.004Z,98799.00
2022-09-25T10:16:38.006Z,98799.00
2022-09-25T10:17:38.004Z,98795.00
2022-09-25T10:18:38.031Z,98797.00
2022-09-25T10:19:38.039Z,98794.00
2022-09-25T10:20:38.066Z,98793.00
2022-09-25T10:21:38.127Z,98795.00
2022-09-25T10:22:38.110Z,98795.00
2022-09-25T10:23:38.142Z,98795.00
2022-09-25T10:24:38.104Z,98790.00
2022-09-25T10:25:38.123Z,98792.00
2022-09-25T10:26:38.160Z,98791.00
2022-09-25T10:27:38.173Z,98787.00
2022-09-25T10:28:38.180Z,98787.00
2022-09-25T10:29:38.204Z,98789.00
2022-09-25T10:30:38.397Z,98785.00
2022-09-25T10:31:38.231Z,98784.00
2022-09-25T10:32:38.276Z,98781.00
2022-09-25T10:33:38.280Z,98781.00
2022-09-25T10:34:38.309Z,98779.00
2022-09-25T10:35:38.331Z,98777.00
2022-09-25T10:36:38.364Z,98775.00
2022-09-25T10:37:38.377Z,98774.00
2022-09-25T10:38:38.398Z,98770.00
2022-09-25T10:39:46.406Z,98769.00
2022-09-25T10:40:38.530Z,98765.00
2022-09-25T10:41:38.436Z,98764.00
2022-09-25T10:42:38.462Z,98763.00
2022-09-25T10:43:38.495Z,98762.00
2022-09-25T10:44:38.498Z,98763.00
2022-09-25T10:45:38.507Z,98767.00
2022-09-25T10:46:38.624Z,98765.00
2022-09-25T10:47:38.516Z,98763.00
2022-09-25T10:48:38.540Z,98764.00
2022-09-25T10:49:38.571Z,98766.00
2022-09-25T10:50:38.599Z,98764.00
2022-09-25T10:51:38.631Z,98761.00
2022-09-25T10:52:38.654Z,98766.00
2022-09-25T10:53:38.703Z,98767.00
2022-09-25T10:54:44.417Z,98765.00
2022-09-25T10:55:38.709Z,98770.00
2022-09-25T10:56:38.735Z,98768.00
2022-09-25T10:57:38.790Z,98763.00
2022-09-25T10:58:38.748Z,98767.00
2022-09-25T10:59:38.751Z,98768.00
2022-09-25T11:00:38.784Z,98765.00
2022-09-25T11:01:39.047Z,98766.00
2022-09-25T11:02:38.880Z,98766.00
2022-09-25T11:03:38.810Z,98763.00
2022-09-25T11:04:38.780Z,98765.00
2022-09-25T11:05:38.847Z,98762.00
2022-09-25T11:06:38.813Z,98767.00
2022-09-25T11:07:38.811Z,98768.00
2022-09-25T11:08:38.840Z,98763.00
2022-09-25T11:09:38.872Z,98768.00
2022-09-25T11:10:38.919Z,98768.00
2022-09-25T11:11:38.921Z,98767.00
2022-09-25T11:12:38.941Z,98771.00
2022-09-25T11:13:38.990Z,98772.00
2022-09-25T11:14:38.986Z,98770.00
2022-09-25T11:15:39.028Z,98770.00
2022-09-25T11:16:39.046Z,98771.00
2022-09-25T11:17:39.024Z,98768.00
2022-09-25T11:18:39.065Z,98772.00
2022-09-25T11:19:39.055Z,98770.00
2022-09-25T11:20:39.115Z,98767.00
2022-09-25T11:21:39.094Z,98767.00
2022-09-25T11:22:39.129Z,98766.00
2022-09-25T11:23:39.130Z,98768.00
2022-09-25T11:24:39.146Z,98767.00
2022-09-25T11:25:39.196Z,98768.00
2022-09-25T11:26:39.168Z,98769.00
2022-09-25T11:27:39.199Z,98769.00
2022-09-25T11:28:39.214Z,98763.00
2022-09-25T11:29:39.236Z,98768.00
2022-09-25T11:30:39.382Z,98765.00
2022-09-25T11:31:39.281Z,98769.00
2022-09-25T11:32:39.323Z,98762.00
2022-09-25T11:33:39.317Z,98768.00
2022-09-25T11:34:39.407Z,98759.00
2022-09-25T11:35:39.369Z,98760.00
2022-09-25T11:36:39.431Z,98766.00
2022-09-25T11:37:39.548Z,98763.00
2022-09-25T11:38:39.410Z,98763.00
2022-09-25T11:39:39.429Z,98767.00
2022-09-25T11:40:39.493Z,98767.00
2022-09-25T11:41:39.467Z,98766.00
2022-09-25T11:42:39.503Z,98764.00
2022-09-25T11:43:39.525Z,98766.00
2022-09-25T11:44:39.557Z,98765.00